Historique des mesures à Cassis (13260), France
Quotidien Résumé Juillet 28, 2021 Unités:  Métrique/US    US   Métrique
Quotidien Hebdomadaire Mensuel Annuel
  Maximum: Minimum: Moyenne:
Température: 84.9 °F /  29.4 °C 63.5 °F /  17.5 °C 73.2 °F /  22.9 °C
Point de rosée: 61.2 °F /  16.2 °C 48.7 °F /  9.3 °C 53.8 °F /  12.1 °C
Humidité: 60% 42% 51%
Vitesse du vent: 20.8mph /  33.5km/h - 5.9mph /  9.5km/h
Rafales: 20.8mph /  33.5km/h - -
Vent- - SW
Pression: 29.8 in /  1008.7 hPa 29.7 in /  1006.2 hPa -
Précipitations: 0 in /  0.0 mm    
Historical Graphs
 
 
Mesures pour : Juillet 28, 2021
Heure Temperature Point de rosée Pression Vent Vitesse du vent Rafales Humidité Pluie (par heure)
00:11 68.5 °F /  20.3 °C 49.6 °F /  9.8 °C 29.7in /  1007.0hPa NW 20.1mph /  32.4km/h 20.6mph /  33.1km/h 51% 0in /  0.0mm
01:11 67.6 °F /  19.8 °C 49.8 °F /  9.9 °C 29.7in /  1007.3hPa WNW 10.5mph /  16.9km/h 13.4mph /  21.6km/h 53% 0in /  0.0mm
02:11 66.9 °F /  19.4 °C 49.6 °F /  9.8 °C 29.7in /  1007.2hPa NW 17mph /  27.4km/h 18.3mph /  29.5km/h 54% 0in /  0.0mm
03:11 65.8 °F /  18.8 °C 49.3 °F /  9.6 °C 29.7in /  1007.1hPa Calm   5.6mph /  9km/h 55% 0in /  0.0mm
04:11 64.8 °F /  18.2 °C 49.6 °F /  9.8 °C 29.7in /  1006.9hPa WNW 11.2mph /  18km/h 15mph /  24.1km/h 58% 0in /  0.0mm
05:11 63.9 °F /  17.7 °C 48.7 °F /  9.3 °C 29.7in /  1006.6hPa NNE 4.9mph /  7.9km/h 6mph /  9.7km/h 58% 0in /  0.0mm
06:11 63.5 °F /  17.5 °C 48.9 °F /  9.4 °C 29.7in /  1006.2hPa North 2.9mph /  4.7km/h 7.6mph /  12.2km/h 59% 0in /  0.0mm
07:11 63.5 °F /  17.5 °C 49.5 °F /  9.7 °C 29.7in /  1006.4hPa NW 20.8mph /  33.5km/h 20.8mph /  33.5km/h 60% 0in /  0.0mm
08:11 73 °F /  22.8 °C 53.2 °F /  11.8 °C 29.7in /  1006.5hPa Calm   3.1mph /  5km/h 50% 0in /  0.0mm
09:11 72.7 °F /  22.6 °C 50.5 °F /  10.3 °C 29.7in /  1006.4hPa WNW 1.8mph /  2.9km/h 9.2mph /  14.8km/h 46% 0in /  0.0mm
10:11 70.7 °F /  21.5 °C 50.5 °F /  10.3 °C 29.7in /  1006.5hPa WSW 10.9mph /  17.6km/h 14.3mph /  23km/h 49% 0in /  0.0mm
11:11 75.6 °F /  24.2 °C 52 °F /  11.1 °C 29.7in /  1006.8hPa WNW 5.3mph /  8.6km/h 17.9mph /  28.8km/h 44% 0in /  0.0mm
12:11 78.8 °F /  26 °C 53.8 °F /  12.1 °C 29.7in /  1007.1hPa SW 10.3mph /  16.6km/h 10.5mph /  16.9km/h 42% 0in /  0.0mm
13:11 80.2 °F /  26.8 °C 56.8 °F /  13.8 °C 29.8in /  1007.5hPa SW 2mph /  3.2km/h 8.7mph /  14km/h 45% 0in /  0.0mm
14:11 84.9 °F /  29.4 °C 59.9 °F /  15.5 °C 29.8in /  1008.0hPa SSW 3.4mph /  5.4km/h 9.8mph /  15.8km/h 43% 0in /  0.0mm
15:11 84 °F /  28.9 °C 60.4 °F /  15.8 °C 29.8in /  1008.2hPa South 6.7mph /  10.8km/h 7mph /  11.2km/h 45% 0in /  0.0mm
16:11 82 °F /  27.8 °C 60.3 °F /  15.7 °C 29.8in /  1008.1hPa Calm   4.7mph /  7.6km/h 48% 0in /  0.0mm
17:11 81.7 °F /  27.6 °C 61.2 °F /  16.2 °C 29.8in /  1008.0hPa SSE 2.5mph /  4km/h 6mph /  9.7km/h 50% 0in /  0.0mm
18:11 81.1 °F /  27.3 °C 60.1 °F /  15.6 °C 29.8in /  1008.2hPa ESE 2.5mph /  4km/h 6mph /  9.7km/h 49% 0in /  0.0mm
19:11 79.7 °F /  26.5 °C 59.5 °F /  15.3 °C 29.8in /  1008.1hPa Calm   2.7mph /  4.3km/h 50% 0in /  0.0mm
20:11 76.1 °F /  24.5 °C 57.7 °F /  14.3 °C 29.8in /  1008.2hPa Calm     53% 0in /  0.0mm
21:11 72.5 °F /  22.5 °C 55.4 °F /  13 °C 29.8in /  1008.7hPa Calm   3.1mph /  5km/h 55% 0in /  0.0mm
22:11 70.5 °F /  21.4 °C 51.4 °F /  10.8 °C 29.8in /  1008.6hPa WNW 4mph /  6.5km/h 10.3mph /  16.6km/h 51% 0in /  0.0mm
23:11 68.9 °F /  20.5 °C 50.5 °F /  10.3 °C 29.8in /  1008.5hPa WNW 4.9mph /  7.9km/h 11.9mph /  19.1km/h 52% 0in /  0.0mm
Observations météo à CASSIS
WU-History script by Weather Underground - 2 mb